Time;durP1;ratioP1;P1;durP2;ratioP2;P2;SDS_P1;SDS_P2;PMS_P1;PMS_P2;Temp;Humidity;BMP_temperature;BMP_pressure;BME280_temperature;BME280_humidity;BME280_pressure;Samples;Min_cycle;Max_cycle;Signal;HPM_P1;HPM_P2
2021/10/13 02:07:43;;;;;;;32.90;15.80;;;;;;;5.25;70.16;98575.45;113543;1193;98913;-70
2021/10/13 02:10:22;;;;;;;29.20;15.70;;;;;;;5.24;70.22;98576.52;113439;1193;107488;-70
2021/10/13 02:12:55;;;;;;;30.10;15.40;;;;;;;5.26;70.19;98580.95;113460;1193;96481;-71
2021/10/13 02:15:27;;;;;;;30.40;17.00;;;;;;;5.27;70.10;98580.38;113448;1195;96301;-71
2021/10/13 02:18:01;;;;;;;31.30;16.30;;;;;;;5.21;69.87;98587.74;113237;1193;112524;-69
2021/10/13 02:20:32;;;;;;;30.10;17.20;;;;;;;5.12;70.01;98585.30;113459;1194;98988;-71
2021/10/13 02:23:05;;;;;;;33.30;18.90;;;;;;;5.05;70.02;98586.23;113449;1193;108507;-68
2021/10/13 02:25:37;;;;;;;33.70;18.90;;;;;;;4.94;70.18;98590.15;113414;1193;98319;-69
2021/10/13 02:28:14;;;;;;;36.50;19.80;;;;;;;4.89;70.07;98590.98;113412;1193;99021;-70
2021/10/13 02:30:46;;;;;;;31.80;17.40;;;;;;;4.88;70.14;98590.83;113366;1193;112572;-70
2021/10/13 02:33:13;;;;;;;30.80;16.40;;;;;;;4.84;70.24;98593.37;113449;1193;96389;-69
2021/10/13 02:35:41;;;;;;;31.60;18.10;;;;;;;4.78;70.34;98592.63;113407;1193;108136;-69
2021/10/13 02:38:12;;;;;;;33.40;16.90;;;;;;;4.75;70.34;98598.58;113483;1193;99582;-70
2021/10/13 02:40:43;;;;;;;33.70;19.00;;;;;;;4.73;70.57;98603.84;113377;1193;99022;-69
2021/10/13 02:43:13;;;;;;;33.00;18.30;;;;;;;4.65;70.47;98604.98;113361;1193;112116;-69
2021/10/13 02:45:58;;;;;;;36.30;18.60;;;;;;;4.59;70.71;98610.94;113424;1193;98722;-69
2021/10/13 02:48:32;;;;;;;33.90;19.20;;;;;;;4.51;70.58;98609.98;113298;1195;107704;-70
2021/10/13 02:51:09;;;;;;;30.40;17.50;;;;;;;4.51;70.53;98612.56;113426;1193;99031;-70
2021/10/13 02:54:09;;;;;;;36.10;18.80;;;;;;;4.54;70.79;98611.90;113321;1195;97803;-68
2021/10/13 02:56:48;;;;;;;36.30;18.60;;;;;;;4.61;70.76;98612.91;113281;1195;111536;-70
2021/10/13 02:59:41;;;;;;;33.20;16.80;;;;;;;4.66;70.59;98616.14;113323;1196;96399;-69
2021/10/13 03:02:19;;;;;;;30.90;15.90;;;;;;;4.72;70.66;98616.36;113353;1195;107485;-68
2021/10/13 03:04:53;;;;;;;30.60;16.50;;;;;;;4.75;70.68;98621.09;113325;1195;97420;-72
2021/10/13 03:07:30;;;;;;;31.30;16.90;;;;;;;4.78;70.69;98621.12;113443;1193;98976;-69
2021/10/13 03:10:03;;;;;;;35.10;19.00;;;;;;;4.76;70.74;98626.65;113603;1193;112598;-70
2021/10/13 03:12:41;;;;;;;32.60;19.70;;;;;;;4.71;70.68;98632.90;113554;1193;98930;-69
2021/10/13 03:15:12;;;;;;;35.10;19.70;;;;;;;4.70;70.71;98634.71;113605;1193;107506;-70
2021/10/13 03:17:46;;;;;;;32.40;17.80;;;;;;;4.67;71.14;98629.95;113605;1193;98987;-69
2021/10/13 03:20:16;;;;;;;34.70;18.80;;;;;;;4.57;71.35;98636.29;113618;1193;98907;-70
2021/10/13 03:22:47;;;;;;;31.80;18.90;;;;;;;4.51;71.40;98639.31;113562;1192;113520;-69
2021/10/13 03:25:26;;;;;;;36.00;19.60;;;;;;;4.47;71.28;98645.27;113540;1193;99019;-69
2021/10/13 03:27:56;;;;;;;35.00;18.70;;;;;;;4.50;71.18;98652.66;113530;1193;107526;-68
2021/10/13 03:30:24;;;;;;;33.40;18.70;;;;;;;4.55;71.19;98657.17;113556;1193;98975;-69
2021/10/13 03:32:53;;;;;;;35.00;19.40;;;;;;;4.59;71.33;98657.95;113572;1193;98998;-68
2021/10/13 03:35:30;;;;;;;36.40;20.10;;;;;;;4.65;71.19;98656.06;113404;1193;112588;-70
2021/10/13 03:38:04;;;;;;;32.40;19.50;;;;;;;4.72;71.22;98657.62;113575;1193;99678;-68
2021/10/13 03:40:35;;;;;;;33.40;18.50;;;;;;;4.75;71.20;98657.66;113557;1193;107430;-70
2021/10/13 03:43:03;;;;;;;37.80;19.40;;;;;;;4.77;71.28;98658.05;113560;1193;97710;-69
2021/10/13 03:45:31;;;;;;;33.90;17.80;;;;;;;4.78;71.29;98661.67;113533;1193;99007;-69
2021/10/13 03:48:01;;;;;;;35.20;19.10;;;;;;;4.80;71.36;98664.42;113537;1192;113013;-70
2021/10/13 03:50:28;;;;;;;35.00;18.60;;;;;;;4.80;71.58;98668.64;113556;1193;98965;-69
2021/10/13 03:52:56;;;;;;;34.70;19.90;;;;;;;4.77;71.55;98668.60;113456;1193;107264;-69
2021/10/13 03:55:26;;;;;;;34.60;19.60;;;;;;;4.76;71.68;98666.52;113411;1193;99843;-69
2021/10/13 03:57:54;;;;;;;34.40;19.40;;;;;;;4.79;71.65;98666.75;113573;1193;98982;-70
2021/10/13 04:00:24;;;;;;;35.30;19.50;;;;;;;4.86;71.63;98665.12;113431;1193;111439;-71
2021/10/13 04:02:52;;;;;;;33.80;19.40;;;;;;;4.91;71.58;98668.50;113429;1193;98873;-70
2021/10/13 04:05:22;;;;;;;35.80;20.00;;;;;;;4.95;71.57;98668.88;113408;1193;108653;-70
2021/10/13 04:07:50;;;;;;;34.30;19.30;;;;;;;4.97;71.58;98666.63;113563;1192;98987;-70
2021/10/13 04:10:18;;;;;;;32.20;19.00;;;;;;;5.02;71.80;98671.98;113558;1192;98970;-70
2021/10/13 04:12:46;;;;;;;36.80;19.70;;;;;;;5.08;71.83;98673.73;113421;1193;112986;-70
2021/10/13 04:15:14;;;;;;;35.10;17.50;;;;;;;5.14;71.68;98676.19;113460;1193;98898;-71
2021/10/13 04:17:44;;;;;;;34.90;18.20;;;;;;;5.22;71.77;98676.47;113437;1193;106555;-71
2021/10/13 04:20:14;;;;;;;34.20;18.80;;;;;;;5.29;71.88;98676.11;113762;1193;99073;-71
2021/10/13 04:22:42;;;;;;;34.80;17.70;;;;;;;5.35;71.75;98680.30;113432;1193;98886;-70
2021/10/13 04:25:10;;;;;;;33.60;18.10;;;;;;;5.40;71.84;98678.61;113348;1193;112659;-69
2021/10/13 04:27:38;;;;;;;31.90;16.90;;;;;;;5.46;71.72;98682.69;113490;1193;98963;-69
2021/10/13 04:30:07;;;;;;;34.20;18.20;;;;;;;5.50;71.79;98682.42;113478;1193;107504;-68
2021/10/13 04:32:35;;;;;;;33.60;18.90;;;;;;;5.56;71.79;98681.05;113360;1193;99024;-70
2021/10/13 04:35:06;;;;;;;34.40;17.50;;;;;;;5.60;71.74;98686.24;113553;1193;98966;-70
2021/10/13 04:37:36;;;;;;;38.80;18.90;;;;;;;5.65;71.71;98683.50;113518;1193;112610;-68
2021/10/13 04:40:07;;;;;;;34.30;17.70;;;;;;;5.70;71.69;98687.83;113448;1187;96360;-68
2021/10/13 04:42:35;;;;;;;33.00;17.80;;;;;;;5.73;71.80;98685.36;113349;1200;107553;-69
2021/10/13 04:45:07;;;;;;;36.20;19.30;;;;;;;5.75;71.56;98690.29;113455;1193;96479;-69
2021/10/13 04:47:35;;;;;;;35.50;18.60;;;;;;;5.78;71.58;98691.36;113346;1193;97711;-69
2021/10/13 04:50:05;;;;;;;36.90;19.00;;;;;;;5.80;71.60;98688.95;113356;1193;113098;-71
2021/10/13 04:52:33;;;;;;;34.80;19.30;;;;;;;5.83;71.54;98693.21;113523;1193;98866;-68
2021/10/13 04:55:01;;;;;;;36.00;19.10;;;;;;;5.85;71.49;98694.83;113331;1193;108135;-68
2021/10/13 04:57:30;;;;;;;37.20;19.50;;;;;;;5.88;71.45;98699.27;113296;1193;99015;-68
2021/10/13 04:59:58;;;;;;;36.00;19.40;;;;;;;5.88;71.58;98701.15;113375;1193;98982;-69
2021/10/13 05:02:26;;;;;;;36.10;21.00;;;;;;;5.90;71.63;98705.63;113306;1193;112918;-69
2021/10/13 05:04:54;;;;;;;33.80;18.70;;;;;;;5.91;71.42;98711.71;113564;1193;98979;-69
2021/10/13 05:07:22;;;;;;;35.40;19.60;;;;;;;5.93;71.63;98716.15;113636;1193;106515;-68
2021/10/13 05:09:52;;;;;;;36.40;20.00;;;;;;;5.95;71.50;98716.08;113481;1193;98977;-71
2021/10/13 05:12:20;;;;;;;35.60;18.90;;;;;;;5.96;71.57;98720.42;113455;1193;99716;-69
2021/10/13 05:14:51;;;;;;;35.90;19.50;;;;;;;5.99;71.60;98724.46;113456;1193;113046;-67
2021/10/13 05:17:20;;;;;;;34.80;19.20;;;;;;;6.01;71.51;98725.63;113480;1193;96517;-68
2021/10/13 05:19:48;;;;;;;35.40;18.50;;;;;;;6.03;71.60;98733.76;113320;1193;106281;-69
2021/10/13 05:22:16;;;;;;;32.90;18.10;;;;;;;6.05;71.68;98735.41;113269;1193;96719;-69
2021/10/13 05:24:44;;;;;;;35.10;19.20;;;;;;;6.05;71.52;98741.36;113414;1193;97096;-69
2021/10/13 05:27:12;;;;;;;34.60;19.60;;;;;;;6.08;71.60;98740.52;113384;1193;113068;-69
2021/10/13 05:29:42;;;;;;;33.70;19.30;;;;;;;6.10;71.73;98740.75;113406;1193;97683;-69
2021/10/13 05:32:09;;;;;;;34.50;19.60;;;;;;;6.12;71.82;98740.98;113366;1193;108074;-69
2021/10/13 05:34:37;;;;;;;28.90;16.20;;;;;;;6.15;71.68;98746.11;113531;1193;98974;-67
2021/10/13 05:37:06;;;;;;;30.90;17.20;;;;;;;6.15;71.53;98751.69;113489;1193;98981;-69
2021/10/13 05:39:34;;;;;;;31.40;16.70;;;;;;;6.15;71.79;98755.05;113478;1193;112986;-69
2021/10/13 05:42:02;;;;;;;32.00;18.00;;;;;;;6.15;71.63;98757.34;113380;1193;97456;-70
2021/10/13 05:44:30;;;;;;;35.00;18.90;;;;;;;6.17;71.62;98760.25;113412;1193;107944;-69
2021/10/13 05:46:58;;;;;;;33.50;18.50;;;;;;;6.17;71.71;98763.56;113316;1193;96357;-69
2021/10/13 05:49:28;;;;;;;31.60;17.70;;;;;;;6.19;71.71;98767.32;113367;1193;98258;-68
2021/10/13 05:51:58;;;;;;;32.10;18.30;;;;;;;6.22;71.80;98770.84;113296;1193;113213;-68
2021/10/13 05:54:26;;;;;;;31.70;17.40;;;;;;;6.24;71.64;98774.61;113355;1193;99010;-68
2021/10/13 05:56:54;;;;;;;31.40;17.50;;;;;;;6.25;71.79;98778.23;113331;1193;108147;-69
2021/10/13 05:59:22;;;;;;;31.00;16.00;;;;;;;6.26;71.75;98781.88;113392;1193;98919;-68
2021/10/13 06:01:52;;;;;;;34.30;18.00;;;;;;;6.27;71.58;98790.48;113362;1193;99007;-68
2021/10/13 06:04:22;;;;;;;30.70;17.10;;;;;;;6.27;71.60;98794.00;113374;1193;113144;-70
2021/10/13 06:06:49;;;;;;;38.50;21.30;;;;;;;6.29;71.85;98800.59;113260;1193;98956;-69
2021/10/13 06:09:17;;;;;;;32.90;18.00;;;;;;;6.31;71.61;98802.34;113497;1193;106584;-70
2021/10/13 06:11:47;;;;;;;32.00;17.90;;;;;;;6.33;71.66;98805.39;113407;1193;98994;-70
2021/10/13 06:14:15;;;;;;;32.70;16.70;;;;;;;6.34;71.68;98813.29;113377;1193;96396;-71
2021/10/13 06:16:43;;;;;;;31.70;16.70;;;;;;;6.35;71.62;98820.77;113430;1193;112509;-69
2021/10/13 06:19:10;;;;;;;30.30;16.50;;;;;;;6.36;71.64;98826.38;113463;1193;97164;-71
2021/10/13 06:21:38;;;;;;;30.70;16.10;;;;;;;6.37;71.74;98831.04;113454;1193;107548;-71
2021/10/13 06:24:06;;;;;;;31.70;16.00;;;;;;;6.37;71.77;98831.05;113449;1193;99021;-72
2021/10/13 06:26:34;;;;;;;29.00;14.70;;;;;;;6.39;71.53;98836.90;113462;1193;98900;-70
2021/10/13 06:29:04;;;;;;;27.10;13.70;;;;;;;6.40;71.74;98837.04;113522;1193;112531;-70
2021/10/13 06:31:32;;;;;;;28.60;14.70;;;;;;;6.41;71.62;98840.52;113459;1193;98896;-71
2021/10/13 06:34:00;;;;;;;27.00;14.70;;;;;;;6.42;71.75;98839.92;113343;1193;107488;-69
2021/10/13 06:36:27;;;;;;;25.20;13.30;;;;;;;6.45;71.76;98840.13;113433;1193;99790;-71
2021/10/13 06:38:55;;;;;;;29.20;14.70;;;;;;;6.46;71.80;98840.23;113422;1187;98945;-72
2021/10/13 06:41:26;;;;;;;26.60;13.50;;;;;;;6.49;71.84;98848.19;113404;1193;111552;-70
2021/10/13 06:43:54;;;;;;;26.80;12.90;;;;;;;6.51;71.74;98850.66;113559;1192;97116;-72
2021/10/13 06:46:24;;;;;;;26.50;13.70;;;;;;;6.51;71.76;98851.56;113454;1193;107501;-69
2021/10/13 06:48:52;;;;;;;26.60;12.80;;;;;;;6.54;71.88;98855.61;113463;1193;99073;-70
2021/10/13 06:51:20;;;;;;;25.50;13.20;;;;;;;6.55;71.68;98858.70;114123;1192;98906;-69
2021/10/13 06:53:48;;;;;;;29.40;12.80;;;;;;;6.57;71.74;98855.96;113395;1193;112697;-69
2021/10/13 06:56:16;;;;;;;25.70;13.50;;;;;;;6.58;71.93;98859.27;113380;1193;98967;-70
2021/10/13 06:58:46;;;;;;;27.60;13.00;;;;;;;6.60;71.89;98858.77;113543;1192;108337;-72
2021/10/13 07:01:14;;;;;;;22.90;12.10;;;;;;;6.64;72.02;98861.73;113385;1193;96377;-70
2021/10/13 07:03:42;;;;;;;26.10;13.10;;;;;;;6.65;71.79;98866.38;113460;1193;99579;-70
2021/10/13 07:06:10;;;;;;;26.80;14.10;;;;;;;6.67;71.74;98872.16;113385;1193;112645;-70
2021/10/13 07:08:38;;;;;;;29.00;13.60;;;;;;;6.68;71.80;98875.96;113437;1193;98891;-69
2021/10/13 07:11:09;;;;;;;27.40;13.70;;;;;;;6.68;71.95;98875.58;113445;1193;107525;-70
2021/10/13 07:13:38;;;;;;;29.00;16.10;;;;;;;6.68;71.86;98877.72;113403;1193;97600;-69
2021/10/13 07:16:07;;;;;;;32.50;16.70;;;;;;;6.68;71.86;98881.23;113251;1193;98902;-70
2021/10/13 07:18:36;;;;;;;33.10;16.40;;;;;;;6.66;71.96;98887.16;113413;1193;113101;-69
2021/10/13 07:21:06;;;;;;;37.50;20.30;;;;;;;6.64;72.02;98885.32;113321;1193;98947;-70
2021/10/13 07:23:34;;;;;;;34.50;18.30;;;;;;;6.65;71.81;98888.64;113388;1193;107523;-68
2021/10/13 07:26:04;;;;;;;36.20;20.10;;;;;;;6.66;71.93;98891.90;113410;1193;98989;-69
2021/10/13 07:28:33;;;;;;;34.40;19.30;;;;;;;6.69;72.00;98894.02;113431;1190;97434;-70
2021/10/13 07:31:03;;;;;;;33.40;18.80;;;;;;;6.71;72.02;98897.62;113427;1193;112191;-69
2021/10/13 07:33:30;;;;;;;36.70;19.40;;;;;;;6.72;71.94;98898.98;113439;1193;100177;-69
2021/10/13 07:36:01;;;;;;;33.20;18.80;;;;;;;6.76;72.21;98902.25;113453;1193;106632;-70
2021/10/13 07:38:30;;;;;;;33.30;18.80;;;;;;;6.75;72.21;98901.96;113418;1193;98956;-69
2021/10/13 07:40:57;;;;;;;32.10;18.70;;;;;;;6.75;71.96;98907.21;113466;1193;98959;-69
2021/10/13 07:43:25;;;;;;;33.50;19.30;;;;;;;6.75;71.95;98903.74;113423;1193;112516;-69
2021/10/13 07:45:53;;;;;;;33.40;19.10;;;;;;;6.76;72.15;98906.96;113473;1193;99003;-68
2021/10/13 07:48:24;;;;;;;32.30;18.30;;;;;;;6.79;71.94;98906.64;113437;1193;107499;-68
2021/10/13 07:50:57;;;;;;;33.20;19.20;;;;;;;6.81;71.86;98909.88;113412;1193;96476;-70
2021/10/13 07:53:26;;;;;;;33.50;18.70;;;;;;;6.86;71.98;98908.35;113387;1193;96309;-71
2021/10/13 07:55:58;;;;;;;34.40;18.20;;;;;;;6.90;72.14;98911.29;113409;1193;112507;-68
2021/10/13 07:58:26;;;;;;;32.30;17.90;;;;;;;6.91;71.87;98916.52;113459;1193;98934;-69
2021/10/13 08:00:53;;;;;;;30.10;17.10;;;;;;;6.93;71.91;98919.60;113495;1193;107412;-69
2021/10/13 08:03:25;;;;;;;35.90;19.10;;;;;;;6.94;72.18;98915.63;113491;1193;98879;-69
2021/10/13 08:05:55;;;;;;;32.60;18.70;;;;;;;6.97;71.98;98920.77;113838;1192;97809;-70
2021/10/13 08:08:23;;;;;;;33.50;19.60;;;;;;;6.99;72.11;98921.81;113699;1192;112482;-69
2021/10/13 08:10:50;;;;;;;34.30;19.60;;;;;;;7.04;72.23;98925.82;113522;1177;98866;-71
2021/10/13 08:13:18;;;;;;;34.80;18.90;;;;;;;7.05;71.92;98928.21;113441;1193;107526;-68
2021/10/13 08:15:46;;;;;;;36.90;19.70;;;;;;;7.02;72.04;98931.40;113836;1192;98878;-70
2021/10/13 08:18:15;;;;;;;32.70;20.40;;;;;;;6.97;71.98;98935.38;113413;1193;98986;-70
2021/10/13 08:20:42;;;;;;;34.40;18.80;;;;;;;6.97;72.07;98936.79;113477;1193;113008;-69
2021/10/13 08:23:12;;;;;;;33.00;18.90;;;;;;;6.95;72.05;98938.11;113528;1193;98887;-67
2021/10/13 08:25:43;;;;;;;33.40;18.90;;;;;;;6.92;72.11;98940.08;113359;1193;107524;-70
2021/10/13 08:28:11;;;;;;;33.30;18.80;;;;;;;6.92;72.13;98944.86;113395;1193;98241;-70
2021/10/13 08:30:39;;;;;;;35.10;19.80;;;;;;;6.91;72.02;98949.50;113478;1192;98910;-70
2021/10/13 08:33:07;;;;;;;35.10;19.50;;;;;;;6.90;71.98;98949.20;113445;1193;113000;-69
2021/10/13 08:35:36;;;;;;;38.40;19.80;;;;;;;6.90;71.88;98945.52;113499;1193;99000;-68
2021/10/13 08:38:03;;;;;;;34.70;19.70;;;;;;;6.91;72.03;98947.02;113395;1193;107964;-67
2021/10/13 08:40:31;;;;;;;35.10;20.00;;;;;;;6.94;72.18;98948.80;113454;1193;96443;-70
2021/10/13 08:43:04;;;;;;;35.80;18.50;;;;;;;6.98;72.30;98944.48;113459;1193;96471;-69
2021/10/13 08:45:33;;;;;;;34.60;19.30;;;;;;;7.04;72.05;98945.04;113381;1196;112522;-70
2021/10/13 08:48:05;;;;;;;36.70;21.40;;;;;;;7.07;72.24;98950.45;113458;1193;98983;-70
2021/10/13 08:50:37;;;;;;;39.90;19.60;;;;;;;7.13;72.10;98950.30;113345;1193;107607;-69
2021/10/13 08:53:17;;;;;;;31.50;17.70;;;;;;;7.19;72.15;98950.09;113385;1193;98902;-69
2021/10/13 08:55:45;;;;;;;32.00;17.00;;;;;;;7.24;72.18;98950.72;113281;1193;99033;-70
2021/10/13 08:58:41;;;;;;;33.80;18.60;;;;;;;7.24;72.08;98953.13;113299;1193;112619;-66
2021/10/13 09:01:13;;;;;;;31.60;17.00;;;;;;;7.20;72.14;98952.71;113334;1192;98896;-68
2021/10/13 09:03:48;;;;;;;30.70;16.40;;;;;;;7.16;72.10;98954.67;113327;1192;108081;-68
2021/10/13 09:06:29;;;;;;;29.00;14.80;;;;;;;7.16;72.26;98965.10;113912;1186;98882;-69
2021/10/13 09:08:59;;;;;;;25.70;13.70;;;;;;;7.10;71.96;98966.34;113482;1192;98849;-70
2021/10/13 09:11:43;;;;;;;27.80;13.00;;;;;;;7.03;71.93;98967.11;114000;1192;112967;-69
2021/10/13 09:14:29;;;;;;;28.80;13.30;;;;;;;6.97;71.83;98968.30;113337;1193;98982;-71
2021/10/13 09:16:59;;;;;;;27.20;13.90;;;;;;;6.93;71.85;98969.63;113311;1193;106211;-70
2021/10/13 09:19:40;;;;;;;25.00;13.90;;;;;;;6.91;71.93;98969.95;113995;1192;99072;-70
2021/10/13 09:22:12;;;;;;;25.50;14.00;;;;;;;6.91;71.85;98971.71;113315;1193;98963;-70
2021/10/13 09:24:54;;;;;;;23.80;12.20;;;;;;;6.95;71.85;98973.58;113348;1193;111737;-68
2021/10/13 09:27:22;;;;;;;23.10;11.80;;;;;;;7.05;72.12;98979.48;113424;1193;98991;-69
2021/10/13 09:29:57;;;;;;;30.80;13.00;;;;;;;7.13;72.08;98978.48;113351;1192;107965;-70
2021/10/13 09:32:27;;;;;;;24.70;11.50;;;;;;;7.22;72.07;98977.45;113355;1193;98995;-69
2021/10/13 09:34:57;;;;;;;24.30;11.40;;;;;;;7.35;71.89;98978.27;113379;1192;99103;-69
2021/10/13 09:37:42;;;;;;;22.10;10.80;;;;;;;7.44;71.88;98971.20;113339;1192;113058;-71
2021/10/13 09:40:27;;;;;;;21.60;11.20;;;;;;;7.56;72.02;98970.13;113355;1193;96388;-70
2021/10/13 09:42:58;;;;;;;22.60;12.00;;;;;;;7.64;71.92;98974.55;113442;1192;108056;-70
2021/10/13 09:45:28;;;;;;;25.60;12.60;;;;;;;7.66;71.91;98979.59;113405;1193;99610;-71
2021/10/13 09:48:06;;;;;;;24.30;14.00;;;;;;;7.65;71.99;98984.05;113353;1193;99595;-69
2021/10/13 09:50:47;;;;;;;25.80;13.70;;;;;;;7.63;71.66;98985.18;113298;1193;112192;-69
2021/10/13 09:53:21;;;;;;;29.00;15.20;;;;;;;7.61;71.67;98986.92;113454;1193;99005;-69
2021/10/13 09:55:53;;;;;;;29.10;15.80;;;;;;;7.56;71.74;98990.07;113384;1193;107919;-69
2021/10/13 09:58:34;;;;;;;30.10;17.00;;;;;;;7.49;71.59;98987.11;113441;1192;98994;-70
2021/10/13 10:01:13;;;;;;;29.50;16.90;;;;;;;7.43;71.50;98988.90;113422;1192;97151;-70
2021/10/13 10:03:49;;;;;;;29.90;16.30;;;;;;;7.38;71.84;98994.67;113336;1193;112390;-71
2021/10/13 10:06:21;;;;;;;32.70;16.90;;;;;;;7.36;71.82;98992.80;113274;1193;99020;-71
2021/10/13 10:08:51;;;;;;;32.70;17.60;;;;;;;7.33;71.67;98990.56;113299;1193;106736;-71
2021/10/13 10:11:40;;;;;;;31.60;17.00;;;;;;;7.28;71.76;98990.47;113342;1193;99032;-70
2021/10/13 10:14:31;;;;;;;32.20;17.20;;;;;;;7.33;71.89;98988.44;113355;1193;98849;-70
2021/10/13 10:17:01;;;;;;;31.10;16.20;;;;;;;7.44;71.84;98985.31;113325;1193;112547;-70
2021/10/13 10:19:45;;;;;;;32.40;16.10;;;;;;;7.54;71.99;98980.42;113412;1192;99009;-71
2021/10/13 10:22:21;;;;;;;34.40;17.00;;;;;;;7.63;71.63;98985.73;113341;1193;107520;-72
2021/10/13 10:24:57;;;;;;;34.20;18.30;;;;;;;7.72;71.84;98991.73;113358;1193;99594;-71
2021/10/13 10:27:33;;;;;;;34.20;18.90;;;;;;;7.77;71.67;98995.29;113316;1193;99029;-72
2021/10/13 10:30:07;;;;;;;29.60;17.60;;;;;;;7.79;71.74;98999.00;113341;1193;112295;-70
2021/10/13 10:32:49;;;;;;;31.40;16.40;;;;;;;7.76;71.29;99005.92;113413;1192;98956;-71
2021/10/13 10:35:17;;;;;;;32.40;18.90;;;;;;;7.65;71.43;99005.23;113321;1193;107519;-72
2021/10/13 10:37:52;;;;;;;31.70;17.70;;;;;;;7.59;71.55;99009.10;113306;1193;96435;-72
2021/10/13 10:40:40;;;;;;;30.60;15.90;;;;;;;7.53;71.50;99005.73;113281;1193;97193;-72
2021/10/13 10:43:17;;;;;;;28.80;15.70;;;;;;;7.49;71.30;99000.52;113312;1193;112507;-69
2021/10/13 10:45:52;;;;;;;32.00;16.90;;;;;;;7.49;71.54;99004.23;113479;1192;98988;-72
2021/10/13 10:48:22;;;;;;;33.90;17.60;;;;;;;7.56;71.72;99002.70;113446;1193;107529;-72
2021/10/13 10:50:53;;;;;;;31.80;15.70;;;;;;;7.70;71.64;99006.16;113257;1193;97089;-71
2021/10/13 10:53:33;;;;;;;27.00;14.30;;;;;;;7.81;71.59;99008.30;113404;1193;98901;-72
2021/10/13 10:56:30;;;;;;;27.00;15.00;;;;;;;7.93;71.79;99011.60;113303;1193;112395;-70
2021/10/13 10:58:59;;;;;;;26.90;14.60;;;;;;;8.03;71.52;99017.70;113389;1193;98907;-70
2021/10/13 11:01:27;;;;;;;26.40;13.70;;;;;;;8.01;71.46;99021.35;113399;1193;108266;-72
2021/10/13 11:03:56;;;;;;;26.70;13.70;;;;;;;7.97;71.54;99022.80;113253;1192;98887;-72
2021/10/13 11:06:28;;;;;;;26.70;14.00;;;;;;;7.94;71.37;99025.30;113456;1193;99595;-71
2021/10/13 11:09:02;;;;;;;26.90;13.30;;;;;;;7.90;71.14;99023.79;113445;1192;111037;-72
2021/10/13 11:11:36;;;;;;;27.10;13.20;;;;;;;7.88;71.40;99024.02;113408;1192;98150;-71
2021/10/13 11:14:24;;;;;;;27.10;14.50;;;;;;;7.91;71.33;99023.90;113450;1193;107913;-73
2021/10/13 11:16:57;;;;;;;27.10;13.90;;;;;;;7.91;71.25;99027.77;113488;1192;98388;-71
2021/10/13 11:19:34;;;;;;;26.70;13.10;;;;;;;7.94;71.42;99030.65;114099;1193;96716;-71
2021/10/13 11:22:11;;;;;;;25.20;13.10;;;;;;;7.93;71.18;99026.59;113425;1193;112616;-71
2021/10/13 11:24:47;;;;;;;26.20;13.10;;;;;;;7.94;71.12;99028.84;113521;1192;98949;-70
2021/10/13 11:27:24;;;;;;;27.20;13.80;;;;;;;7.97;71.36;99027.23;113337;1193;107580;-71
2021/10/13 11:29:52;;;;;;;28.90;14.20;;;;;;;8.03;71.37;99029.16;113402;1193;97401;-71
2021/10/13 11:32:21;;;;;;;24.50;12.20;;;;;;;8.06;71.37;99026.84;113530;1192;99049;-71
2021/10/13 11:34:59;;;;;;;21.90;10.10;;;;;;;8.07;71.14;99028.73;113399;1193;113286;-71
2021/10/13 11:37:29;;;;;;;22.90;11.10;;;;;;;8.06;71.11;99024.91;113460;1193;100496;-72
2021/10/13 11:39:59;;;;;;;22.50;11.50;;;;;;;8.02;71.18;99027.98;113444;1193;107377;-73
2021/10/13 11:42:31;;;;;;;21.30;10.00;;;;;;;8.02;71.11;99032.77;113508;1193;98988;-73
2021/10/13 11:44:58;;;;;;;23.40;10.90;;;;;;;7.98;70.93;99036.71;113574;1192;98920;-72
2021/10/13 11:47:30;;;;;;;21.80;10.30;;;;;;;7.96;70.94;99035.41;113560;1192;112473;-71
2021/10/13 11:50:00;;;;;;;19.80;9.20;;;;;;;7.99;71.08;99034.02;113572;1193;97422;-72
2021/10/13 11:52:30;;;;;;;21.30;9.30;;;;;;;8.03;70.88;99034.98;113449;1178;107575;-75
2021/10/13 11:55:06;;;;;;;20.10;9.00;;;;;;;8.04;70.62;99034.05;113397;1192;99008;-71
2021/10/13 11:57:38;;;;;;;20.50;8.70;;;;;;;8.03;70.68;99030.76;113422;1192;99035;-72
2021/10/13 12:00:20;;;;;;;20.40;8.90;;;;;;;8.03;70.49;99030.20;113391;1193;112518;-72
2021/10/13 12:03:00;;;;;;;18.50;8.40;;;;;;;8.04;70.50;99028.55;113316;1193;98917;-71
2021/10/13 12:05:39;;;;;;;17.40;7.90;;;;;;;8.03;70.67;99024.38;113943;1193;107518;-70
2021/10/13 12:08:12;;;;;;;19.40;8.90;;;;;;;8.10;70.68;99023.08;113329;1193;98850;-72
2021/10/13 12:10:49;;;;;;;21.00;10.10;;;;;;;8.21;70.85;99022.87;113399;1193;99028;-71
2021/10/13 12:13:32;;;;;;;21.70;10.10;;;;;;;8.33;70.74;99019.16;113369;1193;112580;-72
2021/10/13 12:16:26;;;;;;;21.60;9.50;;;;;;;8.41;70.67;99019.88;113283;1193;99447;-72
2021/10/13 12:18:58;;;;;;;18.80;8.20;;;;;;;8.46;70.61;99019.73;113248;1193;108239;-72
2021/10/13 12:21:31;;;;;;;20.50;9.80;;;;;;;8.51;70.64;99018.44;113405;1193;98993;-72
2021/10/13 12:24:07;;;;;;;20.30;8.60;;;;;;;8.57;70.63;99025.77;113317;1193;98913;-74
2021/10/13 12:26:43;;;;;;;19.50;9.00;;;;;;;8.62;70.40;99024.59;113323;1193;112499;-73
2021/10/13 12:29:15;;;;;;;20.90;9.30;;;;;;;8.67;70.29;99027.44;113361;1194;98911;-74
2021/10/13 12:31:44;;;;;;;20.90;8.90;;;;;;;8.68;70.29;99023.49;113357;1193;107358;-72
2021/10/13 12:34:19;;;;;;;20.50;8.70;;;;;;;8.68;70.27;99023.17;113250;1193;99061;-71
2021/10/13 12:36:59;;;;;;;19.30;8.10;;;;;;;8.78;70.38;99024.55;113274;1193;98908;-70
2021/10/13 12:39:30;;;;;;;20.60;9.20;;;;;;;8.96;70.46;99022.35;113285;1193;112533;-71
2021/10/13 12:42:05;;;;;;;20.10;8.50;;;;;;;9.03;70.34;99023.09;113282;1193;98937;-71
2021/10/13 12:44:34;;;;;;;19.60;8.10;;;;;;;9.05;70.29;99018.02;113306;1193;107559;-71
2021/10/13 12:47:09;;;;;;;20.20;8.70;;;;;;;9.16;70.19;99017.45;113400;1193;98909;-71
2021/10/13 12:49:41;;;;;;;19.50;8.10;;;;;;;9.30;70.24;99022.73;113304;1193;98930;-73
2021/10/13 12:52:21;;;;;;;21.00;8.60;;;;;;;9.47;70.26;99021.40;113608;1193;113013;-71
2021/10/13 12:54:55;;;;;;;18.70;7.70;;;;;;;9.68;70.49;99021.23;113333;1192;97491;-72
2021/10/13 12:57:30;;;;;;;18.40;7.80;;;;;;;9.88;70.23;99023.91;114001;1193;108579;-70
2021/10/13 13:00:03;;;;;;;13.90;6.50;;;;;;;10.04;70.34;99024.70;113298;1186;98910;-70
2021/10/13 13:02:51;;;;;;;16.00;6.40;;;;;;;10.08;70.22;99026.20;113331;1193;99085;-71
2021/10/13 13:05:19;;;;;;;13.80;6.30;;;;;;;10.08;70.10;99028.91;113272;1193;112643;-71
2021/10/13 13:07:47;;;;;;;15.90;6.90;;;;;;;10.05;70.01;99035.30;113164;1193;98994;-71
2021/10/13 13:10:15;;;;;;;16.70;6.60;;;;;;;9.99;69.61;99036.58;113460;1192;107319;-72
2021/10/13 13:12:43;;;;;;;14.50;5.60;;;;;;;9.94;69.58;99038.35;113290;1193;98939;-68
2021/10/13 13:15:11;;;;;;;15.10;5.90;;;;;;;9.91;69.73;99043.32;113331;1193;97407;-74
2021/10/13 13:17:39;;;;;;;15.60;6.10;;;;;;;9.84;69.67;99041.53;114292;1193;112603;-74
2021/10/13 13:20:07;;;;;;;19.00;7.10;;;;;;;9.79;69.52;99042.89;113485;1192;99581;-74
2021/10/13 13:22:35;;;;;;;19.40;7.40;;;;;;;9.78;69.52;99045.29;113336;1193;107479;-76
2021/10/13 13:25:03;;;;;;;16.20;6.60;;;;;;;9.77;69.43;99047.46;113263;1192;98886;-73
2021/10/13 13:27:31;;;;;;;17.10;6.90;;;;;;;9.74;69.34;99048.96;113308;1193;98924;-75
2021/10/13 13:29:59;;;;;;;18.40;7.20;;;;;;;9.68;69.11;99050.26;113430;1193;112527;-73
2021/10/13 13:32:27;;;;;;;18.60;7.10;;;;;;;9.60;69.02;99054.15;114773;1193;97428;-74
2021/10/13 13:34:54;;;;;;;16.50;7.40;;;;;;;9.57;69.09;99058.60;114945;1193;107479;-74
2021/10/13 13:37:22;;;;;;;16.30;6.90;;;;;;;9.55;69.03;99057.70;114925;1192;97106;-73
2021/10/13 13:39:51;;;;;;;15.30;6.40;;;;;;;9.49;68.88;99055.80;115009;1193;96844;-75
2021/10/13 13:42:18;;;;;;;19.10;7.20;;;;;;;9.44;68.94;99057.02;113732;1193;112480;-71